KBKX

Brookings Regional Airport

Brookings, South Dakota, USA
METAR KBKX 231056Z AUTO 14014KT 10SM CLR 18/16 A3000 RMK AO2 LTG DSNT NW SLP162 T01830161
Observed Flight Rules
May-23 @ 10:56 UTC (14 minutes ago) Visual Flight Rules
Wind Visibility Clouds
140° at 14 knots 10 miles
  • Clear skies
Temperatures Readings
Current 18°C / 64°F
Dewpoint 16°C / 61°F
Humidity 88%
Altimeter 30" Hg
Pressure 1016.2 hPa
Elevation 502
METAR KBKX 231056Z AUTO 14014KT 10SM CLR 18/16 A3000 RMK AO2 LTG DSNT NW SLP162 T01830161
Observed Flight Rules
May-23 @ 10:56 UTC
(14 minutes ago)
VFR
Wind Visibility
140° at 14 knots 10 miles
Clouds
  • Clear skies
Temperature Dewpoint
18°C / 64°F 16°C / 61°F
Humidity Altimeter Pressure
88% 30" Hg 1016.2 hPa